Terminal Aerodrome Forecast
Issued by NWS

Home | Current Version | Previous Version | Text Only | Print | Product List | Glossary On
Versions: 1 2 3 4 5 6 7 8 9 10 11 12 13 14 15 16 17 18
000
FTUS44 KTSA 172320
TAFXNA
TAF
KXNA 172320Z 1800/1824 18006KT P6SM SKC
     FM181600 19011G17KT P6SM SKC
     FM182300 18008KT P6SM SKC=

USA.gov is the U.S. government's official web portal to all federal, state and local government web resources and services.